Time;durP1;ratioP1;P1;durP2;ratioP2;P2;SDS_P1;SDS_P2;PMS_P1;PMS_P2;Temp;Humidity;BMP_temperature;BMP_pressure;BME280_temperature;BME280_humidity;BME280_pressure;Samples;Min_cycle;Max_cycle;Signal;HPM_P1;HPM_P2
2022/01/25 00:08:26;;;;;;;;;76.50;60.75;;;;;6.13;58.90;102913.88;4954147;28;45461;-87
2022/01/25 00:15:06;;;;;;;;;75.00;59.25;;;;;6.44;58.49;102967.16;4960612;28;45488;-86
2022/01/25 00:25:05;;;;;;;;;83.50;68.00;;;;;5.83;59.39;102887.97;4976219;28;45794;-86
2022/01/25 00:30:43;;;;;;;;;75.25;60.25;;;;;6.09;59.36;102943.88;4929829;28;45630;-86
2022/01/25 00:33:09;;;;;;;;;81.50;62.75;;;;;5.91;59.36;102910.13;4979977;28;45409;-87
2022/01/25 00:35:34;;;;;;;;;75.75;60.25;;;;;5.63;59.48;102864.84;4979869;28;45540;-86
2022/01/25 00:38:00;;;;;;;;;73.75;58.75;;;;;5.42;59.13;102838.16;4979576;28;45366;-86
2022/01/25 00:40:25;;;;;;;;;72.25;56.25;;;;;6.02;59.33;102931.44;4977672;28;45494;-86
2022/01/25 00:42:50;;;;;;;;;74.75;57.50;;;;;5.76;59.24;102888.78;4962759;28;45308;-87
2022/01/25 00:45:19;;;;;;;;;79.00;59.50;;;;;5.96;59.19;102929.59;4979086;28;45417;-87
2022/01/25 00:47:48;;;;;;;;;72.50;58.00;;;;;5.80;59.43;102899.41;4961919;28;45611;-86
2022/01/25 00:50:15;;;;;;;;;73.75;57.00;;;;;5.82;59.27;102904.72;4961902;28;45394;-86
2022/01/25 00:55:10;;;;;;;;;78.50;57.25;;;;;6.15;59.19;102965.09;4979210;28;46188;-86
2022/01/25 00:57:36;;;;;;;;;75.25;58.75;;;;;5.65;58.92;102886.03;4979539;28;45470;-86
2022/01/25 01:00:03;;;;;;;;;73.00;56.00;;;;;5.67;59.31;102881.66;4979881;28;45295;-86
2022/01/25 01:02:29;;;;;;;;;69.75;56.25;;;;;5.93;59.45;102919.84;4979957;28;45397;-86
2022/01/25 01:04:54;;;;;;;;;74.50;58.25;;;;;6.12;59.13;102951.84;4979304;28;46646;-86
2022/01/25 01:07:19;;;;;;;;;74.00;58.00;;;;;5.80;58.98;102909.09;4978846;28;45431;-86
2022/01/25 01:09:50;;;;;;;;;71.25;55.75;;;;;5.64;59.25;102885.16;4979053;28;45413;-87
2022/01/25 01:12:43;;;;;;;;;71.00;54.50;;;;;6.03;58.61;102957.91;4979373;28;45309;-87
2022/01/25 01:31:51;;;;;;;;;71.00;56.50;;;;;5.54;58.93;102908.81;4937943;28;45449;-87
2022/01/25 01:39:51;;;;;;;;;70.50;56.00;;;;;5.43;58.52;102912.22;4936875;28;45236;-87
2022/01/25 01:47:50;;;;;;;;;67.75;53.25;;;;;5.12;59.35;102868.63;4956120;28;45503;-86
2022/01/25 01:50:25;;;;;;;;;70.75;51.00;;;;;5.67;59.24;102963.66;4956238;28;45457;-87
2022/01/25 01:52:51;;;;;;;;;65.00;52.00;;;;;5.79;59.54;102982.31;4950919;28;45592;-87
2022/01/25 01:55:17;;;;;;;;;67.75;54.00;;;;;5.55;59.34;102950.25;4956871;28;45512;-86
2022/01/25 01:57:42;;;;;;;;;64.25;51.00;;;;;5.25;59.32;102888.19;4956702;28;47010;-87
2022/01/25 02:00:08;;;;;;;;;69.00;54.50;;;;;5.71;59.71;102973.38;4967799;28;45370;-86
2022/01/25 02:02:34;;;;;;;;;67.25;54.00;;;;;4.78;59.11;102810.06;4977821;28;45410;-86
2022/01/25 02:04:59;;;;;;;;;65.00;51.25;;;;;5.78;59.20;102985.81;4978774;28;45535;-86
2022/01/25 02:07:25;;;;;;;;;67.75;51.50;;;;;5.71;59.18;102984.88;4977705;28;45511;-86
2022/01/25 02:09:51;;;;;;;;;67.25;53.50;;;;;5.19;59.44;102906.59;4961104;28;45366;-86
2022/01/25 02:12:18;;;;;;;;;68.00;55.00;;;;;5.31;59.45;102919.97;4978301;28;45263;-86
2022/01/25 02:14:44;;;;;;;;;73.00;56.75;;;;;5.40;59.40;102932.44;4960544;28;45500;-86
2022/01/25 02:17:36;;;;;;;;;62.50;51.75;;;;;5.13;59.29;102894.19;4977941;28;45547;-86
2022/01/25 02:22:51;;;;;;;;;72.00;57.00;;;;;5.38;59.62;102950.91;4977975;28;45476;-86
2022/01/25 02:25:16;;;;;;;;;72.00;55.50;;;;;4.83;59.57;102853.25;4974665;28;45509;-86
2022/01/25 02:27:41;;;;;;;;;69.75;56.25;;;;;5.10;59.83;102907.34;4960077;28;48029;-85
2022/01/25 02:30:07;;;;;;;;;66.00;55.00;;;;;5.48;59.32;102975.75;4960194;28;45425;-86
2022/01/25 02:32:33;;;;;;;;;65.50;51.50;;;;;5.02;59.72;102899.31;4960216;28;45532;-85
2022/01/25 02:35:02;;;;;;;;;69.25;54.50;;;;;5.54;60.05;102985.53;4977883;28;45499;-85
2022/01/25 02:37:27;;;;;;;;;73.50;56.50;;;;;5.00;59.63;102916.03;4977380;28;45279;-86
2022/01/25 02:39:52;;;;;;;;;63.50;51.25;;;;;4.73;59.46;102854.00;4960039;28;45545;-86
2022/01/25 02:42:18;;;;;;;;;69.00;55.25;;;;;4.98;59.43;102907.19;4977787;28;45369;-86
2022/01/25 02:44:44;;;;;;;;;66.75;51.50;;;;;4.74;59.54;102863.69;4978115;28;45555;-86
2022/01/25 02:49:55;;;;;;;;;65.25;52.00;;;;;4.95;59.59;102910.69;4977202;28;45432;-85
2022/01/25 02:52:20;;;;;;;;;69.00;55.50;;;;;5.33;59.91;102959.66;4978142;28;45409;-87
2022/01/25 02:54:46;;;;;;;;;65.75;53.25;;;;;5.44;59.48;102985.38;4977900;28;45403;-87
2022/01/25 02:57:13;;;;;;;;;70.75;53.75;;;;;5.31;59.25;102969.31;4976330;28;47335;-86
2022/01/25 02:59:39;;;;;;;;;68.25;51.75;;;;;5.08;59.16;102925.84;4978145;28;45600;-85
2022/01/25 03:02:04;;;;;;;;;68.50;53.25;;;;;4.91;59.78;102902.69;4959430;28;45452;-85
2022/01/25 03:04:30;;;;;;;;;60.50;46.00;;;;;4.85;59.51;102898.22;4959412;28;45757;-85
2022/01/25 03:06:55;;;;;;;;;69.50;52.75;;;;;5.03;59.88;102934.56;4959567;28;46911;-85
2022/01/25 03:09:21;;;;;;;;;65.50;51.75;;;;;4.60;59.61;102857.31;4977422;28;45472;-84
2022/01/25 03:11:50;;;;;;;;;65.00;52.75;;;;;5.33;59.20;102984.34;4960039;28;45262;-85
2022/01/25 03:14:18;;;;;;;;;64.00;50.50;;;;;5.27;59.61;102973.69;4978015;28;45397;-84
2022/01/25 03:16:47;;;;;;;;;61.00;48.50;;;;;5.31;59.38;102977.25;4977350;28;46135;-85
2022/01/25 03:22:13;;;;;;;;;70.00;54.00;;;;;5.25;59.30;102981.59;4977287;28;45406;-85
2022/01/25 03:24:39;;;;;;;;;63.50;51.00;;;;;5.03;59.46;102953.06;4977493;28;45381;-85
2022/01/25 03:27:04;;;;;;;;;61.75;48.25;;;;;4.29;59.62;102829.56;4956781;28;47019;-84
2022/01/25 03:29:29;;;;;;;;;61.50;48.25;;;;;4.97;59.89;102932.72;4976696;28;45286;-84
2022/01/25 03:31:55;;;;;;;;;59.00;48.25;;;;;4.35;59.67;102832.28;4959262;28;45327;-84
2022/01/25 03:34:20;;;;;;;;;60.25;51.00;;;;;4.63;59.58;102881.13;4960309;28;45201;-85
2022/01/25 03:36:46;;;;;;;;;64.75;51.25;;;;;4.51;59.86;102851.91;4959374;28;46460;-84
2022/01/25 03:39:13;;;;;;;;;62.00;47.25;;;;;4.50;59.96;102858.94;4976101;28;45519;-85
2022/01/25 03:41:39;;;;;;;;;61.00;50.75;;;;;4.63;59.94;102867.94;4976985;28;45693;-84
2022/01/25 03:44:04;;;;;;;;;56.75;46.75;;;;;4.85;59.86;102904.38;4959395;28;45640;-84
2022/01/25 03:46:53;;;;;;;;;61.50;48.00;;;;;4.94;60.29;102914.19;4976645;28;45632;-84
2022/01/25 03:52:03;;;;;;;;;61.50;49.50;;;;;5.22;60.24;102956.84;4976755;28;45312;-85
2022/01/25 03:54:28;;;;;;;;;64.00;51.75;;;;;5.21;60.14;102958.63;4977170;28;45390;-85
2022/01/25 03:56:54;;;;;;;;;61.00;49.25;;;;;5.18;60.18;102957.72;4977092;28;45647;-85
2022/01/25 03:59:19;;;;;;;;;61.75;48.50;;;;;4.63;59.68;102865.28;4959132;28;45382;-85
2022/01/25 04:01:45;;;;;;;;;58.25;47.75;;;;;4.92;60.31;102910.66;4979622;28;45370;-85
2022/01/25 04:04:14;;;;;;;;;59.50;46.75;;;;;5.05;59.97;102932.84;4962272;28;45640;-85
2022/01/25 04:06:45;;;;;;;;;61.75;49.00;;;;;5.29;59.82;102970.22;4980415;28;45353;-85
2022/01/25 04:09:10;;;;;;;;;53.25;44.75;;;;;4.94;59.58;102890.41;4979709;28;45270;-85
2022/01/25 04:11:36;;;;;;;;;34.50;28.00;;;;;5.35;59.37;102963.22;4962690;28;45501;-85
2022/01/25 04:14:03;;;;;;;;;56.00;46.00;;;;;4.70;59.49;102855.69;4980397;28;45563;-85
2022/01/25 04:16:33;;;;;;;;;59.25;45.75;;;;;5.38;59.20;102968.53;4979530;28;45425;-85
2022/01/25 04:19:26;;;;;;;;;44.00;38.75;;;;;5.34;59.42;102961.44;4959581;28;45985;-85
2022/01/25 04:27:06;;;;;;;;;53.00;44.50;;;;;5.00;59.38;102910.75;4977024;28;45283;-85
2022/01/25 04:29:31;;;;;;;;;53.75;45.00;;;;;5.08;59.47;102922.34;4975915;28;45358;-86
2022/01/25 04:32:00;;;;;;;;;54.00;44.75;;;;;5.43;59.87;102980.97;4962580;28;45962;-85
2022/01/25 04:53:45;;;;;;;;;54.00;45.00;;;;;5.38;58.96;102979.13;4919236;28;45405;-86
2022/01/25 04:56:38;;;;;;;;;54.50;41.25;;;;;5.34;59.22;102980.84;4918857;28;46291;-86
2022/01/25 04:59:12;;;;;;;;;48.50;38.25;;;;;5.10;58.95;102947.00;4916824;28;46136;-86
2022/01/25 05:01:39;;;;;;;;;53.75;44.75;;;;;5.12;59.06;102944.38;4918641;28;45789;-86
2022/01/25 05:04:10;;;;;;;;;50.00;41.75;;;;;5.06;59.17;102938.16;4918418;28;45531;-86
2022/01/25 05:06:35;;;;;;;;;50.00;40.50;;;;;5.02;58.82;102938.97;4918991;28;45413;-85
2022/01/25 05:09:10;;;;;;;;;41.25;38.00;;;;;4.94;58.80;102915.94;4918154;28;46534;-84
2022/01/25 05:11:40;;;;;;;;;47.25;40.00;;;;;5.29;59.16;102982.50;4917582;28;45445;-85
2022/01/25 05:16:34;;;;;;;;;45.50;38.75;;;;;5.06;59.61;102951.38;4945809;28;45291;-84
2022/01/25 05:22:03;;;;;;;;;50.75;43.50;;;;;5.27;59.55;102994.84;4961579;28;47385;-85
2022/01/25 05:22:06;;;;;;;;;57.25;44.00;;;;;4.74;60.02;102920.94;4978408;28;45705;-84
2022/01/25 05:24:37;;;;;;;;;58.50;41.25;;;;;5.27;60.25;103010.72;4960664;28;45378;-85
2022/01/25 05:27:11;;;;;;;;;55.50;46.75;;;;;5.11;60.04;102975.22;4976608;28;45382;-85
2022/01/25 05:29:37;;;;;;;;;57.75;46.00;;;;;4.84;59.89;102930.75;4978608;28;46119;-84
2022/01/25 05:32:03;;;;;;;;;58.00;45.75;;;;;5.27;60.43;102998.38;4961357;28;45823;-85
2022/01/25 05:34:28;;;;;;;;;56.25;43.75;;;;;5.15;59.96;102978.78;4961671;28;45367;-85
2022/01/25 05:36:54;;;;;;;;;60.50;45.50;;;;;5.27;60.09;102994.84;4978880;28;45383;-85
2022/01/25 05:39:31;;;;;;;;;61.25;47.25;;;;;5.27;60.44;102995.72;4977486;28;46104;-85
2022/01/25 05:42:14;;;;;;;;;61.25;45.50;;;;;4.96;60.23;102953.84;4978802;28;45467;-85
2022/01/25 05:44:53;;;;;;;;;52.75;42.75;;;;;5.22;61.14;103004.44;4978503;28;45446;-85
2022/01/25 05:47:24;;;;;;;;;60.00;47.25;;;;;5.20;61.02;103000.91;4979049;28;45205;-86
2022/01/25 05:49:50;;;;;;;;;53.75;44.00;;;;;4.98;61.40;102973.25;4977917;28;46022;-84
2022/01/25 05:52:15;;;;;;;;;57.75;45.00;;;;;4.70;60.94;102927.03;4978517;28;45516;-85
2022/01/25 05:54:41;;;;;;;;;51.00;42.75;;;;;4.90;61.62;102973.13;4978077;28;45727;-84
2022/01/25 05:57:07;;;;;;;;;54.50;45.00;;;;;4.97;62.17;102985.59;4978858;28;45435;-84
2022/01/25 05:59:32;;;;;;;;;57.25;46.00;;;;;5.05;61.84;103006.84;4978189;28;45693;-85
2022/01/25 06:01:58;;;;;;;;;55.75;42.50;;;;;4.57;61.82;102940.03;4959987;28;45545;-85
2022/01/25 06:04:24;;;;;;;;;55.75;47.00;;;;;4.72;61.95;102963.16;4977248;28;45520;-85
2022/01/25 06:06:50;;;;;;;;;57.75;45.50;;;;;4.93;62.22;103011.94;4960050;28;45632;-84
2022/01/25 06:09:15;;;;;;;;;56.00;44.25;;;;;4.93;62.40;103006.66;4960294;28;46583;-84
2022/01/25 06:11:41;;;;;;;;;51.50;41.00;;;;;4.96;62.41;103009.34;4960075;28;45422;-85
2022/01/25 06:14:06;;;;;;;;;53.25;43.00;;;;;4.95;61.94;103007.56;4978452;28;45235;-84
2022/01/25 06:16:32;;;;;;;;;53.75;45.50;;;;;4.96;62.12;103006.69;4978640;28;45595;-87
2022/01/25 06:18:58;;;;;;;;;61.00;47.75;;;;;4.95;62.61;103005.81;4961373;28;47599;-88
2022/01/25 06:21:24;;;;;;;;;57.50;41.75;;;;;4.71;62.91;102969.31;4961484;28;45336;-88
2022/01/25 06:23:49;;;;;;;;;55.25;46.00;;;;;4.30;62.54;102906.13;4960677;28;45464;-88
2022/01/25 06:26:15;;;;;;;;;54.75;44.50;;;;;4.12;62.15;102861.84;4957718;28;45493;-87
2022/01/25 06:28:41;;;;;;;;;56.50;43.00;;;;;4.50;62.45;102919.66;4979097;28;45707;-88
2022/01/25 06:31:07;;;;;;;;;57.00;44.50;;;;;4.61;61.98;102938.31;4960039;28;45456;-86
2022/01/25 06:33:33;;;;;;;;;56.50;43.50;;;;;4.32;62.33;102891.19;4961009;28;45382;-88
2022/01/25 06:35:58;;;;;;;;;56.75;43.00;;;;;4.30;62.37;102894.69;4961850;28;45692;-88
2022/01/25 06:38:24;;;;;;;;;55.25;44.75;;;;;4.42;63.67;102924.84;4960874;28;47156;-89
2022/01/25 06:40:49;;;;;;;;;59.75;46.00;;;;;4.53;62.88;102937.31;4960832;28;45378;-89
2022/01/25 06:43:15;;;;;;;;;54.50;44.00;;;;;4.54;62.47;102941.72;4961154;28;45814;-88
2022/01/25 06:45:41;;;;;;;;;58.50;45.25;;;;;4.92;62.51;103003.13;4960869;28;45232;-85
2022/01/25 06:48:07;;;;;;;;;56.50;44.25;;;;;5.00;62.47;103000.59;4977028;28;46946;-82
2022/01/25 06:50:33;;;;;;;;;59.75;46.50;;;;;5.01;62.00;103003.28;4977547;28;45472;-83
2022/01/25 06:52:58;;;;;;;;;57.00;45.25;;;;;5.00;62.35;102993.56;4956546;28;45561;-83
2022/01/25 06:55:24;;;;;;;;;52.75;43.75;;;;;5.09;62.51;103006.03;4971833;28;45909;-83
2022/01/25 06:57:49;;;;;;;;;54.25;43.00;;;;;4.95;61.81;102982.03;4977492;28;46475;-82
2022/01/25 07:00:22;;;;;;;;;54.50;44.75;;;;;5.14;62.05;103012.28;4960034;28;45675;-82
2022/01/25 07:02:48;;;;;;;;;60.00;45.00;;;;;5.13;61.86;103005.22;4978047;28;45652;-83
2022/01/25 07:05:14;;;;;;;;;52.75;42.75;;;;;5.16;62.21;103005.25;4955398;28;45641;-81
2022/01/25 07:07:40;;;;;;;;;53.75;42.50;;;;;5.19;61.66;103007.06;4977244;28;46063;-82
2022/01/25 07:10:07;;;;;;;;;53.75;42.25;;;;;5.20;62.05;103011.50;4976886;28;45520;-82
2022/01/25 07:12:33;;;;;;;;;53.25;42.75;;;;;5.14;61.66;102990.25;4978172;28;45428;-83
2022/01/25 07:14:58;;;;;;;;;59.25;48.00;;;;;5.22;61.50;103012.38;4977828;28;45517;-82
2022/01/25 07:17:23;;;;;;;;;68.00;49.75;;;;;5.21;61.49;103002.69;4977444;28;45297;-82
2022/01/25 07:19:52;;;;;;;;;60.25;45.50;;;;;5.02;61.78;102964.50;4977795;28;47905;-81
2022/01/25 07:22:17;;;;;;;;;54.00;45.25;;;;;5.24;61.45;103008.91;4977653;28;47752;-82
2022/01/25 07:24:43;;;;;;;;;51.50;40.75;;;;;4.84;61.56;102936.94;4968202;28;45331;-81
2022/01/25 07:27:09;;;;;;;;;56.25;44.00;;;;;5.07;61.60;102973.41;4957802;28;46336;-81
2022/01/25 07:29:35;;;;;;;;;58.00;43.25;;;;;5.30;61.41;103013.41;4975120;28;45432;-81
2022/01/25 07:32:00;;;;;;;;;48.00;39.50;;;;;5.20;61.28;102998.28;4973535;28;45492;-81
2022/01/25 07:34:26;;;;;;;;;56.75;45.00;;;;;5.16;61.22;102993.81;4965521;28;45406;-81
2022/01/25 07:36:52;;;;;;;;;55.75;42.75;;;;;5.05;61.48;102970.72;4975912;28;46072;-82
2022/01/25 07:39:18;;;;;;;;;56.25;42.75;;;;;5.16;61.23;102988.50;4959156;28;45732;-82
2022/01/25 07:41:45;;;;;;;;;61.00;44.00;;;;;5.31;61.44;103009.88;4977132;28;45419;-82
2022/01/25 07:44:10;;;;;;;;;56.75;45.00;;;;;5.36;61.38;103029.38;4976944;28;45362;-82
2022/01/25 07:46:35;;;;;;;;;55.75;46.25;;;;;5.08;61.49;102976.06;4959433;28;47521;-82
2022/01/25 07:49:02;;;;;;;;;53.25;42.25;;;;;5.11;60.92;102984.91;4957216;28;45389;-82
2022/01/25 07:51:28;;;;;;;;;58.75;47.00;;;;;5.29;61.32;103009.88;4959349;28;45609;-83
2022/01/25 07:53:54;;;;;;;;;60.25;46.00;;;;;5.07;61.41;102987.50;4976739;28;45234;-82
2022/01/25 07:56:20;;;;;;;;;61.25;47.25;;;;;5.30;61.10;103018.69;4974141;28;46220;-82
2022/01/25 07:58:46;;;;;;;;;57.25;43.50;;;;;5.40;61.53;103048.78;4975124;28;45469;-83
2022/01/25 08:01:11;;;;;;;;;72.50;58.25;;;;;5.10;61.54;102998.97;4974280;28;45440;-81
2022/01/25 08:03:38;;;;;;;;;55.75;45.75;;;;;5.41;61.28;103048.81;4976705;28;45571;-86
2022/01/25 08:06:04;;;;;;;;;55.50;44.50;;;;;5.25;61.23;103018.63;4975829;28;46756;-84
2022/01/25 08:08:30;;;;;;;;;57.75;45.00;;;;;5.42;61.15;103055.00;4957747;28;45373;-84
2022/01/25 08:10:55;;;;;;;;;61.50;49.50;;;;;5.22;60.91;103010.66;4959279;28;45439;-87
2022/01/25 08:13:20;;;;;;;;;68.00;49.50;;;;;5.41;61.19;103038.25;4974499;28;45510;-88
2022/01/25 08:15:46;;;;;;;;;57.75;47.00;;;;;4.97;61.45;102967.09;4957730;28;48707;-87
2022/01/25 08:18:11;;;;;;;;;59.25;45.25;;;;;4.71;61.58;102934.09;4958208;28;46173;-87
2022/01/25 08:20:37;;;;;;;;;57.25;48.50;;;;;4.71;61.42;102921.78;4955560;28;45410;-86
2022/01/25 08:23:02;;;;;;;;;59.75;45.00;;;;;4.64;61.10;102902.28;4972170;28;45496;-90
2022/01/25 08:25:28;;;;;;;;;61.50;50.25;;;;;4.74;61.12;102935.00;4975238;28;46902;-89
2022/01/25 08:27:53;;;;;;;;;60.25;47.75;;;;;4.79;61.56;102951.81;4963101;28;45437;-91
2022/01/25 08:30:19;;;;;;;;;71.25;56.25;;;;;4.83;61.21;102952.78;4957940;28;45491;-88
2022/01/25 08:32:44;;;;;;;;;113.25;93.50;;;;;4.90;61.20;102977.53;4959426;28;45788;-87
2022/01/25 08:35:17;;;;;;;;;64.00;52.50;;;;;4.01;61.48;102808.00;4975879;28;45595;-88
2022/01/25 08:37:43;;;;;;;;;63.50;50.00;;;;;4.91;61.05;102963.44;4957912;28;45640;-87
2022/01/25 08:40:09;;;;;;;;;64.25;48.50;;;;;5.18;61.42;103029.97;4977218;28;45611;-87
2022/01/25 08:42:35;;;;;;;;;81.75;63.00;;;;;5.49;61.18;103047.16;4974997;28;45480;-88
2022/01/25 08:45:01;;;;;;;;;62.75;48.00;;;;;4.60;61.13;102905.75;4956288;28;47363;-90
2022/01/25 08:47:26;;;;;;;;;56.75;46.00;;;;;4.37;61.31;102867.53;4959469;28;45616;-89
2022/01/25 08:49:52;;;;;;;;;54.75;44.50;;;;;4.93;61.66;102965.25;4979304;28;45388;-90
2022/01/25 08:52:17;;;;;;;;;59.25;47.00;;;;;4.89;61.35;102955.50;4961538;28;45465;-87
2022/01/25 08:54:42;;;;;;;;;51.75;43.75;;;;;5.59;61.23;103055.22;4960473;28;47327;-84
2022/01/25 08:57:09;;;;;;;;;59.75;47.75;;;;;5.14;61.35;102971.75;4978135;28;45504;-87
2022/01/25 08:59:35;;;;;;;;;58.50;47.00;;;;;5.52;61.39;103048.97;4961580;28;46604;-86
2022/01/25 09:02:01;;;;;;;;;62.00;47.25;;;;;4.71;60.90;102908.56;4962395;28;45765;-88
2022/01/25 09:04:27;;;;;;;;;67.25;52.00;;;;;4.91;60.44;102929.09;4961340;28;48096;-87
2022/01/25 09:06:52;;;;;;;;;66.00;50.50;;;;;5.57;60.51;103046.38;4977272;28;45676;-86
2022/01/25 09:09:17;;;;;;;;;60.25;49.50;;;;;5.08;60.31;102964.63;4979049;28;45271;-90
2022/01/25 09:11:43;;;;;;;;;59.50;47.00;;;;;4.85;60.34;102925.50;4962364;28;45456;-91
2022/01/25 09:14:09;;;;;;;;;58.50;45.00;;;;;5.58;60.29;103040.25;4967687;28;48045;-88
2022/01/25 09:16:36;;;;;;;;;59.50;46.25;;;;;5.66;60.25;103057.09;4979376;28;45353;-86
2022/01/25 09:19:02;;;;;;;;;57.75;45.00;;;;;5.45;60.28;103032.13;4960486;28;45504;-88
2022/01/25 09:21:28;;;;;;;;;56.50;43.50;;;;;5.55;60.26;103043.75;4961123;28;45530;-89
2022/01/25 09:23:54;;;;;;;;;56.25;46.00;;;;;4.69;60.05;102907.66;4959755;28;47005;-92
2022/01/25 09:26:21;;;;;;;;;59.75;48.50;;;;;4.76;60.22;102898.06;4962012;28;45849;-91
2022/01/25 09:28:46;;;;;;;;;57.50;44.25;;;;;4.80;59.95;102921.91;4958882;28;45415;-90
2022/01/25 09:31:12;;;;;;;;;52.00;44.00;;;;;5.65;60.05;103071.22;4960206;28;45476;-90
2022/01/25 09:33:37;;;;;;;;;57.75;44.25;;;;;4.56;60.00;102892.47;4960926;28;48406;-90
2022/01/25 09:36:03;;;;;;;;;61.00;46.50;;;;;4.82;59.87;102919.28;4979578;28;45358;-89
2022/01/25 09:38:28;;;;;;;;;58.00;47.00;;;;;4.90;60.16;102930.88;4962001;28;45289;-88
2022/01/25 09:40:54;;;;;;;;;58.50;45.50;;;;;5.51;59.54;103047.19;4962258;28;45251;-88
2022/01/25 09:43:21;;;;;;;;;56.50;44.25;;;;;4.82;59.65;102922.84;4961486;28;47228;-88
2022/01/25 09:45:47;;;;;;;;;58.75;47.75;;;;;5.18;59.60;102990.31;4978950;28;45388;-88
2022/01/25 09:48:14;;;;;;;;;59.25;46.25;;;;;5.28;59.59;103007.19;4961169;28;45422;-91
2022/01/25 09:50:40;;;;;;;;;53.50;45.25;;;;;5.81;59.67;103080.25;4961532;28;45276;-88
2022/01/25 09:53:06;;;;;;;;;58.75;45.50;;;;;5.83;59.52;103084.69;4961753;28;48132;-86
2022/01/25 09:55:34;;;;;;;;;58.50;46.75;;;;;5.09;59.15;102963.75;4961863;28;45592;-89
2022/01/25 09:58:00;;;;;;;;;53.50;42.75;;;;;5.33;59.23;103005.50;4961154;28;45559;-88
2022/01/25 10:00:29;;;;;;;;;57.50;46.25;;;;;4.63;59.47;102882.00;4962223;28;45628;-88
2022/01/25 10:05:45;;;;;;;;;49.50;40.25;;;;;5.46;59.14;103022.44;4974120;28;45362;-88
2022/01/25 10:08:14;;;;;;;;;55.75;45.25;;;;;5.29;59.04;102982.50;4961713;28;45484;-88
2022/01/25 10:10:43;;;;;;;;;61.25;46.25;;;;;5.34;58.97;102996.72;4979964;28;45389;-89
2022/01/25 10:13:20;;;;;;;;;54.25;45.25;;;;;5.15;58.83;102949.72;4961629;28;47507;-89
2022/01/25 10:16:09;;;;;;;;;58.00;45.50;;;;;5.98;59.15;103089.34;4961539;28;45827;-89
2022/01/25 10:18:48;;;;;;;;;52.25;42.25;;;;;5.85;59.04;103069.72;4961479;28;45439;-88
2022/01/25 10:21:21;;;;;;;;;56.75;45.75;;;;;5.74;58.85;103031.66;4961859;28;45497;-88
2022/01/25 10:24:14;;;;;;;;;62.00;47.25;;;;;6.11;58.82;103095.66;4961569;28;47274;-88
2022/01/25 10:26:41;;;;;;;;;56.75;46.25;;;;;6.10;58.74;103094.78;4961540;28;45673;-89
2022/01/25 10:29:09;;;;;;;;;55.75;43.50;;;;;6.10;58.53;103093.91;4961517;28;45356;-88
2022/01/25 10:31:40;;;;;;;;;53.75;42.50;;;;;5.69;58.00;103034.22;4961733;28;45835;-89
2022/01/25 10:34:08;;;;;;;;;55.75;46.25;;;;;5.64;58.81;103020.06;4961187;28;48162;-88
2022/01/25 10:36:38;;;;;;;;;54.25;42.00;;;;;5.72;58.42;103026.31;4961013;28;45979;-88
2022/01/25 10:39:03;;;;;;;;;56.25;43.75;;;;;5.80;58.54;103033.47;4961486;28;45416;-87
2022/01/25 10:41:29;;;;;;;;;53.25;41.50;;;;;5.30;57.98;102944.66;4961072;28;45668;-88
2022/01/25 10:43:56;;;;;;;;;55.25;42.00;;;;;5.75;58.71;103030.78;4961231;28;46256;-88
2022/01/25 10:46:29;;;;;;;;;53.00;42.00;;;;;6.22;58.75;103091.41;4977949;28;45304;-89
2022/01/25 10:49:04;;;;;;;;;54.75;41.00;;;;;5.86;58.63;103025.63;4961031;28;45538;-88
2022/01/25 10:51:34;;;;;;;;;55.25;45.25;;;;;6.33;58.32;103097.72;4978167;28;45463;-89
2022/01/25 10:54:07;;;;;;;;;54.50;42.50;;;;;6.08;58.21;103053.28;4960976;28;47376;-89
2022/01/25 10:56:35;;;;;;;;;56.75;43.50;;;;;6.32;58.21;103087.09;4960875;28;45453;-89
2022/01/25 10:59:02;;;;;;;;;56.50;45.00;;;;;5.76;58.09;102989.31;4977428;28;45469;-89
2022/01/25 11:01:34;;;;;;;;;53.75;43.75;;;;;6.41;58.17;103091.63;4960620;28;45322;-90
2022/01/25 11:04:09;;;;;;;;;60.25;44.00;;;;;5.79;58.20;102977.03;4960787;28;47447;-88
2022/01/25 11:06:35;;;;;;;;;50.75;39.50;;;;;6.51;58.20;103094.41;4960502;28;45676;-89
2022/01/25 11:09:05;;;;;;;;;56.00;43.00;;;;;6.21;57.82;103034.03;4960254;28;45544;-89
2022/01/25 11:11:35;;;;;;;;;57.00;42.50;;;;;6.12;58.07;103018.03;4978738;28;45499;-89
2022/01/25 11:14:50;;;;;;;;;57.75;45.75;;;;;6.34;57.90;103049.19;4976930;28;48038;-89
2022/01/25 11:16:49;;;;;;;;;58.00;44.75;;;;;6.64;57.80;103090.09;4978375;28;45516;-89
2022/01/25 11:19:16;;;;;;;;;60.50;47.25;;;;;6.27;57.50;103023.47;4960835;28;45601;-89
2022/01/25 11:21:43;;;;;;;;;68.00;51.75;;;;;6.58;57.68;103078.53;4962465;28;45301;-89
2022/01/25 11:24:11;;;;;;;;;65.50;49.00;;;;;5.95;57.79;102964.91;4960565;28;48201;-89
2022/01/25 11:26:37;;;;;;;;;55.50;45.00;;;;;6.39;57.35;103049.25;4960424;28;45490;-89
2022/01/25 11:29:03;;;;;;;;;57.75;45.00;;;;;5.97;57.48;102964.91;4960452;28;45553;-89
2022/01/25 11:31:29;;;;;;;;;62.00;49.00;;;;;5.67;57.35;102919.56;4960096;28;45641;-89
2022/01/25 11:33:57;;;;;;;;;59.75;48.25;;;;;6.03;57.26;102971.16;4960256;28;48123;-89
2022/01/25 11:36:23;;;;;;;;;55.75;46.00;;;;;6.03;57.49;102960.56;4960186;28;45356;-89
2022/01/25 11:38:51;;;;;;;;;63.00;51.50;;;;;5.91;57.23;102929.53;4960657;28;45355;-89
2022/01/25 11:41:19;;;;;;;;;61.25;49.25;;;;;6.29;56.98;102994.38;4960678;28;45379;-89
2022/01/25 11:44:05;;;;;;;;;58.00;46.25;;;;;6.88;57.40;103088.56;4960470;28;48174;-89
2022/01/25 11:46:31;;;;;;;;;63.00;45.00;;;;;6.44;56.77;103012.16;4959956;28;45197;-89
2022/01/25 11:49:03;;;;;;;;;62.00;45.75;;;;;6.95;56.78;103096.63;4978008;28;45230;-89
2022/01/25 11:51:29;;;;;;;;;55.50;46.00;;;;;6.39;56.95;102995.34;4960678;28;45565;-89
2022/01/25 11:53:54;;;;;;;;;55.00;42.75;;;;;6.20;57.05;102955.44;4960088;28;47277;-89
2022/01/25 11:56:20;;;;;;;;;58.25;45.75;;;;;6.65;56.80;103038.00;4960289;28;45446;-89
2022/01/25 11:58:57;;;;;;;;;58.75;44.00;;;;;6.60;57.21;103037.06;4959837;28;45939;-89
2022/01/25 12:01:25;;;;;;;;;58.00;46.25;;;;;6.95;56.77;103079.78;4960817;28;45490;-89
2022/01/25 12:03:56;;;;;;;;;56.75;43.75;;;;;6.48;56.65;103000.75;4960073;28;47357;-89
2022/01/25 12:06:28;;;;;;;;;60.50;46.75;;;;;6.94;56.68;103076.25;4977561;28;45264;-90
2022/01/25 12:11:45;;;;;;;;;55.00;45.50;;;;;7.00;57.17;103078.09;4977862;28;45568;-88
2022/01/25 12:14:27;;;;;;;;;54.75;43.50;;;;;7.00;57.10;103077.19;4959318;28;48373;-89
2022/01/25 12:16:56;;;;;;;;;54.50;44.25;;;;;6.44;56.89;102970.69;4959807;28;45303;-89
2022/01/25 12:19:34;;;;;;;;;51.75;44.00;;;;;6.58;56.99;102986.72;4975479;28;45513;-89
2022/01/25 12:22:01;;;;;;;;;55.25;43.00;;;;;7.08;56.83;103060.47;4961617;28;45379;-89
2022/01/25 12:24:33;;;;;;;;;53.00;42.50;;;;;7.06;56.65;103064.00;4963272;28;47077;-89
2022/01/25 12:29:59;;;;;;;;;54.75;44.00;;;;;6.62;56.81;102991.16;4980201;28;45537;-89
2022/01/25 12:32:27;;;;;;;;;57.75;44.00;;;;;7.08;56.96;103051.66;4963500;28;45420;-89
2022/01/25 12:35:00;;;;;;;;;49.25;39.00;;;;;6.65;57.06;102969.09;4962946;28;47446;-89
2022/01/25 12:37:44;;;;;;;;;42.25;35.00;;;;;7.12;57.05;103045.50;4980813;28;45468;-88
2022/01/25 12:40:25;;;;;;;;;56.00;42.25;;;;;7.07;56.67;103048.09;4963000;28;45472;-89
2022/01/25 12:42:56;;;;;;;;;56.25;43.00;;;;;7.10;56.68;103049.91;4963097;28;45592;-89
2022/01/25 12:45:24;;;;;;;;;51.00;42.75;;;;;6.68;56.67;102985.94;4962817;28;47227;-89
2022/01/25 12:47:55;;;;;;;;;51.75;42.75;;;;;6.39;56.74;102938.00;4980332;28;45421;-90
2022/01/25 12:50:21;;;;;;;;;49.25;40.25;;;;;6.69;56.70;102978.84;4980745;28;45416;-90
2022/01/25 12:52:47;;;;;;;;;49.00;39.00;;;;;7.13;57.05;103036.66;4963281;28;45597;-89
2022/01/25 12:55:13;;;;;;;;;57.25;44.25;;;;;6.55;56.76;102946.94;4962761;28;47227;-89
2022/01/25 12:57:46;;;;;;;;;59.50;47.00;;;;;6.95;56.58;103013.53;4962514;28;45904;-89
2022/01/25 13:00:14;;;;;;;;;58.00;43.75;;;;;7.10;56.55;103040.16;4962974;28;45526;-89